createdAt,value
2018-06-04T00:00:15.725Z,20.83
2018-06-04T00:05:19.553Z,22.67
2018-06-04T00:10:23.394Z,21.37
2018-06-04T00:15:27.889Z,21.83
2018-06-04T00:20:32.056Z,21.80
2018-06-04T00:25:35.930Z,22.50
2018-06-04T00:30:40.014Z,24.03
2018-06-04T00:35:43.854Z,23.93
2018-06-04T00:40:47.694Z,25.07
2018-06-04T00:45:51.541Z,23.93
2018-06-04T00:50:55.382Z,22.97
2018-06-04T00:56:16.875Z,22.97
2018-06-04T01:01:20.962Z,24.00
2018-06-04T01:06:25.071Z,26.30
2018-06-04T01:11:29.157Z,25.70
2018-06-04T01:16:33.246Z,25.53
2018-06-04T01:21:37.151Z,25.77
2018-06-04T01:26:41.264Z,25.33
2018-06-04T01:31:45.089Z,24.87
2018-06-04T01:36:48.925Z,26.43
2018-06-04T01:41:53.027Z,27.10
2018-06-04T01:46:57.114Z,27.37
2018-06-04T01:52:01.219Z,23.53
2018-06-04T01:57:05.047Z,24.27
2018-06-04T02:02:08.925Z,23.63
2018-06-04T02:07:12.769Z,23.27
2018-06-04T02:12:16.879Z,28.00
2018-06-04T02:17:20.961Z,24.50
2018-06-04T02:22:25.051Z,26.47
2018-06-04T02:27:29.006Z,23.87
2018-06-04T02:32:32.846Z,24.90
2018-06-04T02:37:36.757Z,25.73
2018-06-04T02:42:41.438Z,23.77
2018-06-04T02:47:45.538Z,24.83
2018-06-04T02:52:49.363Z,26.77
2018-06-04T02:57:53.478Z,26.23
2018-06-04T03:02:57.321Z,23.23
2018-06-04T03:08:01.455Z,24.07
2018-06-04T03:13:05.631Z,23.90
2018-06-04T03:18:09.466Z,23.40
2018-06-04T03:23:13.293Z,25.97
2018-06-04T03:28:17.233Z,24.57
2018-06-04T03:33:21.070Z,24.92
2018-06-04T03:38:24.891Z,24.23
2018-06-04T03:43:28.970Z,26.37
2018-06-04T03:48:33.063Z,25.03
2018-06-04T03:53:37.155Z,27.23
2018-06-04T03:58:40.993Z,25.87
2018-06-04T04:03:44.819Z,28.77
2018-06-04T04:08:48.903Z,25.60
2018-06-04T04:13:52.963Z,24.00
2018-06-04T04:18:56.782Z,24.40
2018-06-04T04:24:00.601Z,25.40
2018-06-04T04:29:04.460Z,25.03
2018-06-04T04:34:08.275Z,25.73
2018-06-04T04:39:12.098Z,28.97
2018-06-04T04:44:15.937Z,26.30
2018-06-04T04:49:19.781Z,25.30
2018-06-04T04:54:23.869Z,24.70
2018-06-04T04:59:27.735Z,24.60
2018-06-04T05:04:31.675Z,26.87
2018-06-04T05:09:35.665Z,25.70
2018-06-04T05:14:39.510Z,25.63
2018-06-04T05:19:43.361Z,24.43
2018-06-04T05:24:47.198Z,25.30
2018-06-04T05:29:51.077Z,24.97
2018-06-04T05:34:54.954Z,23.43
2018-06-04T05:39:58.773Z,21.10
2018-06-04T05:45:05.875Z,20.00
2018-06-04T05:50:09.681Z,19.90
2018-06-04T05:55:13.492Z,19.63
2018-06-04T06:00:17.315Z,20.82
2018-06-04T06:05:21.125Z,17.90
2018-06-04T06:10:24.946Z,18.17
2018-06-04T06:15:28.755Z,17.67
2018-06-04T06:20:32.567Z,18.10
2018-06-04T06:25:36.637Z,17.30
2018-06-04T06:30:40.482Z,16.23
2018-06-04T06:35:44.342Z,17.60
2018-06-04T06:40:48.194Z,16.10
2018-06-04T06:45:52.055Z,18.40
2018-06-04T06:50:56.192Z,16.83
2018-06-04T06:56:00.266Z,16.17
2018-06-04T07:01:04.387Z,16.03
2018-06-04T07:06:08.241Z,16.57
2018-06-04T07:11:12.110Z,15.63
2018-06-04T07:16:15.978Z,17.93
2018-06-04T07:21:19.823Z,14.13
2018-06-04T07:26:23.930Z,14.00
2018-06-04T07:31:27.770Z,14.53
2018-06-04T07:36:31.634Z,13.80
2018-06-04T07:41:35.723Z,13.43
2018-06-04T07:46:45.978Z,14.70
2018-06-04T07:51:50.200Z,14.47
2018-06-04T07:56:54.035Z,13.00
2018-06-04T08:01:57.889Z,14.60
2018-06-04T08:07:01.726Z,13.67
2018-06-04T08:12:05.992Z,14.07
2018-06-04T08:17:09.831Z,12.30
2018-06-04T08:22:13.658Z,13.63
2018-06-04T08:27:17.735Z,12.33
2018-06-04T08:32:21.583Z,11.88
2018-06-04T08:37:25.879Z,10.93
2018-06-04T08:42:29.701Z,10.45
2018-06-04T08:47:33.549Z,11.33
2018-06-04T08:52:37.370Z,10.30
2018-06-04T08:57:41.193Z,10.23
2018-06-04T09:02:45.000Z,9.13
2018-06-04T09:07:48.807Z,9.80
2018-06-04T09:12:52.865Z,9.85
2018-06-04T09:17:56.937Z,9.53
2018-06-04T09:23:01.020Z,11.18
2018-06-04T09:28:05.131Z,9.53
2018-06-04T09:33:08.959Z,9.68
2018-06-04T09:38:12.793Z,9.33
2018-06-04T09:43:16.970Z,8.88
2018-06-04T09:48:21.087Z,8.00
2018-06-04T09:53:24.938Z,9.08
2018-06-04T09:58:28.771Z,8.53
2018-06-04T10:03:32.590Z,8.83
2018-06-04T10:08:36.427Z,9.23
2018-06-04T10:13:40.238Z,9.33
2018-06-04T10:18:44.062Z,9.93
2018-06-04T10:23:47.910Z,8.97
2018-06-04T10:28:51.742Z,8.57
2018-06-04T10:33:55.831Z,8.73
2018-06-04T10:38:59.939Z,8.20
2018-06-04T10:44:04.322Z,8.78
2018-06-04T10:49:08.173Z,9.10
2018-06-04T10:54:12.822Z,8.10
2018-06-04T10:59:16.697Z,7.90
2018-06-04T11:04:20.594Z,8.27
2018-06-04T11:09:24.703Z,7.47
2018-06-04T11:14:28.542Z,7.20
2018-06-04T11:19:32.376Z,7.27
2018-06-04T11:24:36.475Z,7.23
2018-06-04T11:29:40.568Z,6.97
2018-06-04T11:34:44.407Z,7.40
2018-06-04T11:39:48.772Z,7.40
2018-06-04T11:44:52.606Z,7.27
2018-06-04T11:49:56.434Z,7.30
2018-06-04T11:55:00.577Z,7.90
2018-06-04T12:00:04.668Z,6.13
2018-06-04T12:05:10.995Z,7.70
2018-06-04T12:10:14.841Z,6.30
2018-06-04T12:15:18.734Z,6.50
2018-06-04T12:20:22.816Z,7.10
2018-06-04T12:25:26.729Z,6.60
2018-06-04T12:30:30.561Z,6.30
2018-06-04T12:35:35.194Z,6.03
2018-06-04T12:40:39.029Z,6.20
2018-06-04T12:45:42.864Z,6.00
2018-06-04T12:50:46.956Z,6.50
2018-06-04T12:55:50.780Z,6.03
2018-06-04T13:00:54.843Z,5.90
2018-06-04T13:05:58.668Z,5.60
2018-06-04T13:11:02.971Z,6.37
2018-06-04T13:16:07.602Z,5.93
2018-06-04T13:21:11.677Z,5.80
2018-06-04T13:26:15.482Z,6.57
2018-06-04T13:31:19.582Z,6.23
2018-06-04T13:36:23.406Z,6.87
2018-06-04T13:41:27.492Z,6.83
2018-06-04T13:46:31.601Z,5.60
2018-06-04T13:51:35.678Z,6.20
2018-06-04T13:56:39.497Z,6.17
2018-06-04T14:01:43.349Z,6.13
2018-06-04T14:06:47.193Z,5.50
2018-06-04T14:11:51.098Z,5.30
2018-06-04T14:16:55.211Z,5.13
2018-06-04T14:21:59.303Z,5.00
2018-06-04T14:27:03.198Z,5.00
2018-06-04T14:32:07.489Z,4.90
2018-06-04T14:37:11.334Z,5.63
2018-06-04T14:42:15.188Z,5.37
2018-06-04T14:47:19.084Z,5.87
2018-06-04T14:52:23.245Z,5.73
2018-06-04T14:57:27.430Z,5.50
2018-06-04T15:02:31.275Z,5.40
2018-06-04T15:07:35.206Z,5.17
2018-06-04T15:12:39.294Z,5.27
2018-06-04T15:17:43.588Z,6.13
2018-06-04T15:22:47.667Z,5.10
2018-06-04T15:27:51.500Z,5.57
2018-06-04T15:32:55.609Z,5.47
2018-06-04T15:37:59.994Z,4.63
2018-06-04T15:43:04.197Z,5.12
2018-06-04T15:48:08.035Z,5.10
2018-06-04T15:53:11.859Z,5.47
2018-06-04T15:58:15.722Z,5.57
2018-06-04T16:03:19.639Z,5.30
2018-06-04T16:08:23.469Z,5.97
2018-06-04T16:13:27.590Z,4.93
2018-06-04T16:18:31.702Z,5.87
2018-06-04T16:23:35.784Z,4.93
2018-06-04T16:28:39.713Z,5.00
2018-06-04T16:33:43.556Z,5.50
2018-06-04T16:38:47.457Z,5.37
2018-06-04T16:43:51.613Z,5.20
2018-06-04T16:48:55.472Z,6.37
2018-06-04T16:53:59.380Z,6.83
2018-06-04T16:59:03.233Z,6.77
2018-06-04T17:04:07.269Z,6.70
2018-06-04T17:09:11.094Z,5.40
2018-06-04T17:14:14.930Z,6.00
2018-06-04T17:19:18.885Z,6.00
2018-06-04T17:24:23.004Z,6.50
2018-06-04T17:29:27.084Z,6.53
2018-06-04T17:34:30.908Z,7.70
2018-06-04T17:39:35.221Z,7.70
2018-06-04T17:44:39.298Z,8.10
2018-06-04T17:49:43.113Z,8.40
2018-06-04T17:54:47.208Z,8.00
2018-06-04T17:59:51.042Z,9.07
2018-06-04T18:04:54.879Z,9.50
2018-06-04T18:09:58.926Z,9.47
2018-06-04T18:15:02.842Z,9.97
2018-06-04T18:20:07.015Z,11.43
2018-06-04T18:25:10.862Z,13.30
2018-06-04T18:30:14.823Z,13.07
2018-06-04T18:35:18.653Z,14.17
2018-06-04T18:40:22.514Z,14.20
2018-06-04T18:45:26.482Z,15.93
2018-06-04T18:50:30.389Z,16.63
2018-06-04T18:55:34.285Z,16.40
2018-06-04T19:00:38.415Z,17.00
2018-06-04T19:05:42.274Z,15.97
2018-06-04T19:10:46.134Z,17.00
2018-06-04T19:15:50.269Z,15.63
2018-06-04T19:20:54.144Z,15.37
2018-06-04T19:25:58.316Z,15.13
2018-06-04T19:31:02.777Z,16.97
2018-06-04T19:36:06.617Z,16.83
2018-06-04T19:41:10.442Z,17.07
2018-06-04T19:46:14.767Z,16.10
2018-06-04T19:51:18.625Z,15.97
2018-06-04T19:56:22.738Z,17.13
2018-06-04T20:01:26.868Z,18.03
2018-06-04T20:06:30.737Z,17.60
2018-06-04T20:11:34.580Z,18.80
2018-06-04T20:16:38.435Z,18.27
2018-06-04T20:21:42.599Z,19.03
2018-06-04T20:26:46.745Z,18.93
2018-06-04T20:31:50.857Z,18.90
2018-06-04T20:36:54.725Z,18.43
2018-06-04T20:41:58.595Z,18.90
2018-06-04T20:47:02.720Z,20.47
2018-06-04T20:52:06.679Z,18.67
2018-06-04T20:57:10.855Z,20.13
2018-06-04T21:02:14.685Z,18.30
2018-06-04T21:07:18.549Z,19.57
2018-06-04T21:12:22.396Z,19.30
2018-06-04T21:17:26.493Z,16.93
2018-06-04T21:22:30.650Z,19.00
2018-06-04T21:27:34.746Z,18.97
2018-06-04T21:32:38.816Z,19.80
2018-06-04T21:37:42.650Z,19.20
2018-06-04T21:42:47.541Z,19.00
2018-06-04T21:47:51.493Z,17.97
2018-06-04T21:52:55.329Z,18.92
2018-06-04T21:57:59.515Z,19.43
2018-06-04T22:03:03.382Z,20.70
2018-06-04T22:08:07.472Z,20.27
2018-06-04T22:13:11.335Z,20.73
2018-06-04T22:18:15.196Z,19.83
2018-06-04T22:23:19.190Z,20.93
2018-06-04T22:28:23.351Z,18.50
2018-06-04T22:33:27.226Z,17.17
2018-06-04T22:38:31.055Z,18.73
2018-06-04T22:43:34.901Z,18.27
2018-06-04T22:48:38.735Z,18.63
2018-06-04T22:53:42.542Z,19.33
2018-06-04T22:58:46.373Z,17.87
2018-06-04T23:03:50.294Z,19.53
2018-06-04T23:08:54.160Z,18.30
2018-06-04T23:13:58.023Z,20.40
2018-06-04T23:19:02.166Z,19.80
2018-06-04T23:24:06.252Z,17.30
2018-06-04T23:29:10.375Z,17.97
2018-06-04T23:34:14.230Z,20.73
2018-06-04T23:39:18.070Z,19.10
2018-06-04T23:44:22.017Z,19.97
2018-06-04T23:49:26.862Z,19.40
2018-06-04T23:54:30.975Z,19.67
2018-06-04T23:59:35.134Z,20.10
